createdAt,value
2023-03-29T00:00:26.926Z,1.23
2023-03-29T00:01:00.455Z,1.20
2023-03-29T00:01:35.228Z,1.40
2023-03-29T00:02:11.222Z,1.10
2023-03-29T00:02:48.827Z,0.90
2023-03-29T00:03:21.931Z,0.87
2023-03-29T00:03:57.678Z,1.03
2023-03-29T00:04:31.605Z,1.33
2023-03-29T00:05:05.123Z,0.77
2023-03-29T00:05:41.771Z,1.40
2023-03-29T00:06:15.467Z,1.23
2023-03-29T00:06:48.326Z,1.10
2023-03-29T00:07:23.839Z,0.90
2023-03-29T00:08:02.051Z,0.90
2023-03-29T00:08:34.595Z,0.90
2023-03-29T00:09:10.303Z,1.00
2023-03-29T00:09:43.078Z,1.00
2023-03-29T00:10:16.052Z,1.10
2023-03-29T00:10:52.404Z,1.10
2023-03-29T00:11:25.965Z,1.10
2023-03-29T00:11:58.371Z,1.07
2023-03-29T00:12:34.005Z,1.10
2023-03-29T00:13:06.407Z,1.30
2023-03-29T00:13:40.275Z,1.03
2023-03-29T00:14:15.386Z,1.20
2023-03-29T00:14:48.032Z,0.97
2023-03-29T00:15:20.678Z,1.07
2023-03-29T00:15:56.373Z,1.00
2023-03-29T00:16:28.802Z,1.00
2023-03-29T00:17:01.223Z,1.00
2023-03-29T00:17:36.300Z,0.83
2023-03-29T00:18:11.353Z,1.00
2023-03-29T00:18:43.968Z,0.87
2023-03-29T00:19:18.906Z,1.03
2023-03-29T00:19:51.273Z,0.90
2023-03-29T00:20:23.609Z,0.80
2023-03-29T00:20:56.355Z,1.00
2023-03-29T00:21:31.499Z,1.10
2023-03-29T00:22:06.064Z,1.20
2023-03-29T00:22:40.024Z,1.10
2023-03-29T00:23:15.062Z,1.10
2023-03-29T00:23:47.394Z,0.90
2023-03-29T00:24:21.489Z,1.10
2023-03-29T00:24:57.781Z,0.80
2023-03-29T00:25:30.137Z,0.90
2023-03-29T00:26:03.267Z,1.03
2023-03-29T00:26:39.161Z,1.00
2023-03-29T00:27:11.498Z,0.80
2023-03-29T00:27:43.847Z,1.10
2023-03-29T00:28:19.046Z,0.97
2023-03-29T00:28:51.517Z,0.80
2023-03-29T00:29:23.843Z,0.90
2023-03-29T00:29:59.131Z,0.97
2023-03-29T00:30:31.491Z,1.00
2023-03-29T00:31:09.256Z,1.03
2023-03-29T00:31:46.103Z,1.07
2023-03-29T00:32:18.498Z,1.10
2023-03-29T00:32:51.614Z,1.00
2023-03-29T00:33:29.175Z,1.23
2023-03-29T00:34:01.736Z,1.30
2023-03-29T00:34:36.354Z,1.20
2023-03-29T00:35:12.042Z,0.90
2023-03-29T00:35:44.457Z,1.10
2023-03-29T00:36:19.432Z,0.90
2023-03-29T00:36:53.264Z,1.03
2023-03-29T00:37:26.984Z,0.97
2023-03-29T00:38:01.940Z,0.80
2023-03-29T00:38:34.507Z,1.27
2023-03-29T00:39:09.776Z,0.70
2023-03-29T00:39:42.500Z,1.07
2023-03-29T00:40:15.786Z,1.07
2023-03-29T00:40:50.879Z,0.90
2023-03-29T00:41:23.270Z,1.10
2023-03-29T00:41:55.858Z,0.90
2023-03-29T00:42:31.066Z,1.10
2023-03-29T00:43:03.423Z,1.10
2023-03-29T00:43:58.020Z,0.87
2023-03-29T00:45:04.634Z,0.80
2023-03-29T00:45:37.128Z,0.70
2023-03-29T00:46:09.652Z,1.10
2023-03-29T00:46:44.679Z,1.00
2023-03-29T00:47:18.365Z,1.10
2023-03-29T00:47:52.533Z,0.97
2023-03-29T00:48:31.554Z,0.90
2023-03-29T00:49:07.841Z,0.83
2023-03-29T00:49:40.269Z,0.73
2023-03-29T00:50:18.654Z,0.90
2023-03-29T00:50:53.004Z,0.93
2023-03-29T00:51:27.659Z,0.87
2023-03-29T00:52:03.791Z,1.00
2023-03-29T00:52:36.407Z,1.00
2023-03-29T00:53:12.649Z,0.87
2023-03-29T00:53:50.373Z,1.43
2023-03-29T00:54:22.801Z,1.00
2023-03-29T00:54:56.296Z,0.80
2023-03-29T00:55:35.425Z,1.00
2023-03-29T00:56:11.994Z,1.00
2023-03-29T00:56:49.893Z,1.03
2023-03-29T00:57:25.873Z,0.80
2023-03-29T00:58:01.181Z,1.00
2023-03-29T00:58:40.700Z,0.80
2023-03-29T00:59:16.336Z,0.90
2023-03-29T00:59:49.212Z,1.10
2023-03-29T01:00:26.915Z,0.90
2023-03-29T01:01:02.639Z,1.00
2023-03-29T01:01:42.251Z,0.97
2023-03-29T01:02:22.313Z,1.07
2023-03-29T01:02:59.841Z,1.17
2023-03-29T01:03:41.754Z,0.90
2023-03-29T01:04:19.739Z,1.07
2023-03-29T01:04:55.731Z,0.90
2023-03-29T01:05:34.031Z,0.90
2023-03-29T01:06:08.796Z,0.90
2023-03-29T01:06:43.620Z,0.90
2023-03-29T01:07:22.034Z,0.80
2023-03-29T01:07:58.300Z,0.90
2023-03-29T01:08:33.098Z,0.80
2023-03-29T01:09:11.096Z,0.80
2023-03-29T01:09:44.912Z,0.80
2023-03-29T01:10:20.610Z,1.00
2023-03-29T01:10:59.509Z,1.00
2023-03-29T01:11:36.183Z,1.10
2023-03-29T01:12:11.695Z,0.70
2023-03-29T01:12:50.210Z,0.90
2023-03-29T01:13:27.574Z,1.00
2023-03-29T01:14:03.859Z,0.80
2023-03-29T01:14:42.038Z,1.00
2023-03-29T01:15:19.227Z,0.90
2023-03-29T01:15:54.450Z,0.80
2023-03-29T01:16:30.492Z,0.93
2023-03-29T01:17:02.862Z,0.80
2023-03-29T01:17:35.356Z,0.90
2023-03-29T01:18:10.413Z,1.10
2023-03-29T01:18:47.127Z,0.93
2023-03-29T01:19:21.790Z,1.03
2023-03-29T01:20:02.428Z,1.10
2023-03-29T01:20:43.740Z,0.90
2023-03-29T01:21:25.277Z,0.97
2023-03-29T01:22:02.314Z,1.00
2023-03-29T01:22:41.746Z,1.00
2023-03-29T01:23:29.879Z,0.90
2023-03-29T01:24:20.952Z,1.07
2023-03-29T01:25:00.686Z,0.77
2023-03-29T01:25:39.847Z,0.87
2023-03-29T01:26:16.993Z,1.10
2023-03-29T01:26:56.295Z,1.07
2023-03-29T01:27:52.850Z,1.13
2023-03-29T01:28:28.666Z,0.93
2023-03-29T01:29:04.710Z,0.97
2023-03-29T01:29:42.353Z,0.80
2023-03-29T01:30:18.967Z,1.00
2023-03-29T01:30:55.313Z,0.90
2023-03-29T01:31:33.384Z,0.80
2023-03-29T01:32:09.965Z,1.00
2023-03-29T01:32:44.895Z,0.70
2023-03-29T01:33:23.687Z,1.10
2023-03-29T01:34:01.669Z,0.80
2023-03-29T01:34:41.003Z,0.97
2023-03-29T01:35:16.719Z,1.20
2023-03-29T01:35:57.733Z,1.10
2023-03-29T01:36:35.299Z,1.10
2023-03-29T01:37:11.587Z,1.20
2023-03-29T01:37:48.411Z,1.13
2023-03-29T01:38:26.743Z,1.03
2023-03-29T01:39:00.982Z,0.93
2023-03-29T01:39:35.232Z,0.83
2023-03-29T01:40:11.212Z,0.80
2023-03-29T01:40:43.599Z,0.83
2023-03-29T01:41:15.958Z,0.90
2023-03-29T01:41:59.475Z,0.80
2023-03-29T01:42:41.004Z,0.93
2023-03-29T01:43:25.453Z,0.90
2023-03-29T01:44:02.014Z,0.80
2023-03-29T01:44:38.863Z,0.97
2023-03-29T01:45:20.720Z,0.90
2023-03-29T01:45:59.142Z,0.90
2023-03-29T01:46:34.093Z,0.80
2023-03-29T01:47:13.692Z,1.20
2023-03-29T01:47:48.482Z,0.80
2023-03-29T01:48:26.292Z,0.90
2023-03-29T01:49:03.786Z,0.80
2023-03-29T01:49:40.229Z,0.80
2023-03-29T01:50:16.246Z,0.90
2023-03-29T01:50:54.465Z,1.10
2023-03-29T01:51:30.146Z,0.80
2023-03-29T01:52:08.216Z,1.00
2023-03-29T01:52:45.953Z,1.03
2023-03-29T01:53:24.979Z,0.90
2023-03-29T01:54:00.585Z,0.90
2023-03-29T01:54:41.063Z,1.00
2023-03-29T01:55:15.790Z,0.80
2023-03-29T01:55:50.790Z,1.10
2023-03-29T01:56:28.202Z,0.90
2023-03-29T01:57:03.417Z,0.90
2023-03-29T01:57:37.787Z,0.70
2023-03-29T01:58:15.101Z,0.90
2023-03-29T01:58:52.178Z,0.80
2023-03-29T01:59:28.465Z,0.83
2023-03-29T02:00:11.326Z,0.90
2023-03-29T02:00:44.140Z,0.90
2023-03-29T02:01:23.209Z,0.90
2023-03-29T02:01:58.689Z,0.83
2023-03-29T02:02:33.271Z,0.90
2023-03-29T02:03:15.069Z,1.10
2023-03-29T02:03:50.984Z,0.73
2023-03-29T02:04:27.882Z,0.73
2023-03-29T02:05:02.945Z,0.67
2023-03-29T02:05:36.218Z,0.80
2023-03-29T02:06:11.204Z,1.00
2023-03-29T02:06:46.575Z,0.90
2023-03-29T02:07:22.872Z,0.80
2023-03-29T02:07:56.535Z,1.10
2023-03-29T02:08:32.841Z,1.10
2023-03-29T02:09:05.447Z,0.90
2023-03-29T02:09:38.189Z,1.00
2023-03-29T02:10:14.557Z,0.80
2023-03-29T02:10:47.703Z,0.80
2023-03-29T02:11:20.546Z,1.00
2023-03-29T02:11:56.250Z,1.10
2023-03-29T02:12:29.066Z,0.90
2023-03-29T02:13:01.633Z,0.93
2023-03-29T02:13:36.627Z,1.20
2023-03-29T02:14:11.603Z,0.90
2023-03-29T02:14:44.189Z,0.77
2023-03-29T02:15:21.666Z,0.93
2023-03-29T02:15:54.345Z,1.00
2023-03-29T02:16:27.017Z,0.97
2023-03-29T02:17:18.466Z,0.70
2023-03-29T02:17:51.667Z,0.90
2023-03-29T02:18:24.910Z,0.80
2023-03-29T02:19:00.503Z,0.80
2023-03-29T02:19:33.320Z,0.90
2023-03-29T02:20:14.811Z,0.93
2023-03-29T02:20:52.034Z,0.90
2023-03-29T02:21:27.401Z,1.10
2023-03-29T02:22:02.166Z,0.90
2023-03-29T02:22:41.440Z,1.00
2023-03-29T02:23:18.243Z,0.83
2023-03-29T02:23:54.871Z,1.10
2023-03-29T02:24:32.439Z,0.90
2023-03-29T02:25:08.586Z,0.90
2023-03-29T02:25:43.425Z,0.80
2023-03-29T02:26:20.615Z,0.90
2023-03-29T02:26:52.965Z,0.87
2023-03-29T02:27:26.312Z,0.90
2023-03-29T02:28:01.537Z,0.90
2023-03-29T02:28:36.340Z,0.83
2023-03-29T02:29:14.024Z,0.83
2023-03-29T02:29:48.050Z,0.70
2023-03-29T02:30:21.271Z,0.63
2023-03-29T02:31:00.100Z,0.93
2023-03-29T02:31:36.207Z,0.97
2023-03-29T02:32:11.455Z,0.83
2023-03-29T02:32:52.554Z,0.77
2023-03-29T02:33:27.740Z,0.90
2023-03-29T02:34:08.113Z,0.90
2023-03-29T02:34:47.876Z,1.00
2023-03-29T02:35:26.928Z,0.73
2023-03-29T02:36:05.042Z,0.87
2023-03-29T02:36:40.976Z,0.80
2023-03-29T02:37:15.874Z,1.00
2023-03-29T02:37:52.522Z,0.80
2023-03-29T02:38:26.613Z,0.93
2023-03-29T02:39:05.966Z,1.00
2023-03-29T02:39:40.281Z,0.80
2023-03-29T02:40:14.726Z,0.70
2023-03-29T02:40:50.393Z,0.73
2023-03-29T02:41:23.931Z,0.83
2023-03-29T02:41:57.008Z,0.70
2023-03-29T02:42:32.497Z,0.83
2023-03-29T02:43:07.180Z,0.80
2023-03-29T02:43:40.492Z,1.30
2023-03-29T02:44:21.749Z,0.80
2023-03-29T02:44:57.929Z,0.70
2023-03-29T02:45:30.936Z,0.70
2023-03-29T02:46:06.648Z,0.70
2023-03-29T02:46:39.334Z,0.90
2023-03-29T02:47:15.442Z,0.90
2023-03-29T02:47:54.462Z,0.87
2023-03-29T02:48:29.013Z,0.80
2023-03-29T02:49:05.382Z,0.80
2023-03-29T02:49:37.753Z,0.70
2023-03-29T02:50:10.765Z,0.70
2023-03-29T02:50:48.137Z,1.03
2023-03-29T02:51:23.785Z,0.87
2023-03-29T02:52:01.943Z,0.80
2023-03-29T02:52:39.531Z,0.83
2023-03-29T02:53:15.274Z,0.90
2023-03-29T02:53:52.566Z,0.90
2023-03-29T02:54:30.061Z,0.80
2023-03-29T02:55:03.555Z,1.00
2023-03-29T02:55:36.783Z,0.97
2023-03-29T02:56:12.137Z,0.87
2023-03-29T02:56:45.658Z,0.70
2023-03-29T02:57:18.328Z,0.80
2023-03-29T02:57:53.412Z,0.80
2023-03-29T02:58:26.848Z,0.87
2023-03-29T02:58:59.347Z,0.60
2023-03-29T02:59:38.733Z,0.70
2023-03-29T03:00:14.822Z,0.60
2023-03-29T03:00:48.910Z,1.00
2023-03-29T03:01:24.153Z,0.90
2023-03-29T03:01:56.885Z,0.73
2023-03-29T03:02:30.032Z,0.70
2023-03-29T03:03:06.112Z,0.80
2023-03-29T03:03:38.699Z,0.70
2023-03-29T03:04:11.651Z,0.83
2023-03-29T03:04:46.728Z,0.80
2023-03-29T03:05:19.611Z,0.90
2023-03-29T03:05:52.645Z,0.97
2023-03-29T03:06:29.359Z,0.87
2023-03-29T03:07:01.758Z,0.77
2023-03-29T03:07:34.404Z,1.00
2023-03-29T03:08:10.249Z,0.70
2023-03-29T03:08:43.475Z,0.67
2023-03-29T03:09:15.943Z,0.70
2023-03-29T03:09:53.786Z,0.83
2023-03-29T03:10:26.266Z,0.80
2023-03-29T03:10:59.839Z,1.00
2023-03-29T03:11:35.076Z,0.90
2023-03-29T03:12:07.832Z,0.70
2023-03-29T03:12:40.364Z,0.73
2023-03-29T03:13:15.594Z,0.70
2023-03-29T03:13:47.997Z,0.80
2023-03-29T03:14:23.016Z,0.70
2023-03-29T03:15:01.051Z,0.90
2023-03-29T03:15:35.923Z,0.90
2023-03-29T03:16:09.793Z,0.80
2023-03-29T03:16:45.352Z,0.90
2023-03-29T03:17:18.959Z,0.77
2023-03-29T03:17:53.047Z,0.60
2023-03-29T03:18:28.165Z,0.70
2023-03-29T03:19:01.139Z,0.80
2023-03-29T03:19:34.009Z,0.70
2023-03-29T03:20:13.932Z,0.80
2023-03-29T03:20:55.626Z,0.70
2023-03-29T03:21:28.382Z,0.80
2023-03-29T03:22:03.458Z,0.70
2023-03-29T03:22:35.857Z,1.00
2023-03-29T03:23:09.857Z,0.70
2023-03-29T03:23:45.968Z,0.97
2023-03-29T03:24:18.617Z,0.70
2023-03-29T03:24:51.363Z,0.60
2023-03-29T03:25:26.629Z,0.70
2023-03-29T03:26:00.251Z,0.70
2023-03-29T03:26:32.995Z,0.77
2023-03-29T03:27:08.725Z,0.73
2023-03-29T03:27:41.501Z,0.70
2023-03-29T03:28:14.245Z,0.70
2023-03-29T03:28:49.282Z,0.87
2023-03-29T03:29:42.338Z,0.80
2023-03-29T03:30:46.223Z,0.70
2023-03-29T03:31:30.964Z,0.57
2023-03-29T03:32:28.913Z,0.80
2023-03-29T03:33:01.345Z,0.67
2023-03-29T03:33:55.441Z,0.70
2023-03-29T03:34:39.882Z,1.00
2023-03-29T03:35:15.553Z,0.93
2023-03-29T03:35:48.283Z,0.70
2023-03-29T03:36:26.193Z,0.70
2023-03-29T03:37:02.338Z,0.70
2023-03-29T03:37:40.968Z,0.60
2023-03-29T03:38:15.488Z,0.70
2023-03-29T03:38:49.270Z,0.80
2023-03-29T03:39:24.528Z,0.87
2023-03-29T03:39:57.103Z,0.70
2023-03-29T03:40:30.733Z,0.70
2023-03-29T03:41:06.177Z,0.73
2023-03-29T03:41:39.871Z,0.70
2023-03-29T03:42:14.897Z,0.90
2023-03-29T03:42:49.944Z,0.60
2023-03-29T03:43:22.638Z,0.77
2023-03-29T03:43:58.628Z,0.80
2023-03-29T03:44:31.213Z,0.90
2023-03-29T03:45:27.925Z,0.67
2023-03-29T03:46:17.474Z,0.70
2023-03-29T03:46:53.189Z,0.80
2023-03-29T03:47:25.684Z,0.77
2023-03-29T03:48:00.179Z,0.60
2023-03-29T03:48:55.481Z,0.70
2023-03-29T03:49:35.712Z,0.63
2023-03-29T03:50:10.246Z,0.87
2023-03-29T03:50:51.441Z,0.80
2023-03-29T03:51:24.259Z,0.90
2023-03-29T03:51:57.010Z,0.80
2023-03-29T03:52:32.182Z,0.80
2023-03-29T03:53:04.635Z,0.80
2023-03-29T03:53:59.554Z,0.90
2023-03-29T03:54:40.723Z,0.80
2023-03-29T03:55:32.609Z,0.70
2023-03-29T03:56:16.967Z,0.60
2023-03-29T03:57:07.959Z,0.60
2023-03-29T03:57:48.165Z,0.67
2023-03-29T03:58:27.335Z,0.80
2023-03-29T03:58:59.891Z,0.80
2023-03-29T03:59:33.826Z,0.60
2023-03-29T04:00:20.462Z,0.70
2023-03-29T04:01:04.666Z,0.80
2023-03-29T04:01:52.985Z,0.70
2023-03-29T04:02:28.407Z,0.70
2023-03-29T04:03:02.481Z,1.00
2023-03-29T04:03:39.353Z,0.83
2023-03-29T04:04:14.940Z,0.83
2023-03-29T04:05:03.257Z,0.90
2023-03-29T04:05:40.852Z,0.77
2023-03-29T04:06:14.182Z,0.63
2023-03-29T04:07:13.301Z,0.80
2023-03-29T04:08:07.642Z,0.60
2023-03-29T04:09:02.845Z,0.63
2023-03-29T04:09:42.365Z,0.57
2023-03-29T04:10:44.042Z,0.60
2023-03-29T04:11:21.124Z,0.60
2023-03-29T04:11:53.577Z,0.70
2023-03-29T04:12:28.765Z,0.50
2023-03-29T04:13:02.535Z,0.60
2023-03-29T04:13:35.964Z,0.80
2023-03-29T04:14:34.151Z,0.60
2023-03-29T04:15:12.547Z,0.60
2023-03-29T04:15:54.495Z,0.60
2023-03-29T04:16:27.597Z,0.60
2023-03-29T04:17:05.900Z,0.60
2023-03-29T04:17:53.626Z,0.60
2023-03-29T04:18:31.766Z,0.50
2023-03-29T04:19:05.579Z,0.50
2023-03-29T04:19:40.740Z,0.60
2023-03-29T04:20:13.733Z,0.60
2023-03-29T04:20:47.458Z,0.60
2023-03-29T04:21:26.367Z,0.60
2023-03-29T04:21:58.798Z,0.70
2023-03-29T04:22:31.360Z,0.70
2023-03-29T04:23:07.085Z,0.50
2023-03-29T04:23:43.230Z,0.60
2023-03-29T04:24:16.122Z,0.60
2023-03-29T04:24:57.137Z,0.60
2023-03-29T04:25:32.620Z,0.70
2023-03-29T04:26:26.117Z,0.60
2023-03-29T04:27:09.045Z,0.53
2023-03-29T04:27:41.639Z,0.50
2023-03-29T04:28:25.055Z,0.90
2023-03-29T04:29:09.778Z,0.70
2023-03-29T04:29:50.832Z,0.57
2023-03-29T04:30:31.463Z,0.60
2023-03-29T04:31:29.802Z,0.60
2023-03-29T04:32:16.704Z,0.70
2023-03-29T04:33:06.111Z,0.63
2023-03-29T04:33:40.086Z,0.60
2023-03-29T04:34:13.437Z,0.50
2023-03-29T04:34:48.453Z,0.60
2023-03-29T04:35:20.913Z,0.60
2023-03-29T04:35:53.686Z,0.60
2023-03-29T04:36:29.854Z,0.57
2023-03-29T04:37:10.250Z,0.50
2023-03-29T04:37:46.729Z,0.50
2023-03-29T04:38:23.597Z,0.63
2023-03-29T04:38:58.765Z,0.60
2023-03-29T04:39:35.172Z,0.60
2023-03-29T04:40:14.490Z,0.50
2023-03-29T04:41:21.458Z,0.57
2023-03-29T04:42:08.772Z,0.63
2023-03-29T04:42:46.046Z,0.50
2023-03-29T04:43:18.710Z,0.53
2023-03-29T04:44:03.389Z,0.60
2023-03-29T04:44:37.140Z,0.50
2023-03-29T04:45:14.159Z,0.63
2023-03-29T04:46:17.206Z,0.70
2023-03-29T04:47:12.584Z,0.50
2023-03-29T04:48:01.511Z,0.50
2023-03-29T04:48:33.921Z,0.60
2023-03-29T04:49:06.735Z,0.47
2023-03-29T04:49:45.567Z,0.60
2023-03-29T04:50:26.052Z,0.70
2023-03-29T04:50:58.547Z,0.50
2023-03-29T04:51:33.750Z,0.60
2023-03-29T04:52:09.904Z,0.60
2023-03-29T04:52:43.143Z,0.60
2023-03-29T04:53:18.315Z,0.60
2023-03-29T04:53:51.105Z,0.67
2023-03-29T04:54:23.725Z,0.60
2023-03-29T04:55:17.293Z,0.60
2023-03-29T04:56:18.577Z,0.47
2023-03-29T04:57:19.479Z,0.60
2023-03-29T04:57:51.847Z,0.50
2023-03-29T04:58:30.659Z,0.50
2023-03-29T04:59:07.464Z,0.50
2023-03-29T04:59:39.832Z,0.53
2023-03-29T05:00:27.439Z,0.50
2023-03-29T05:01:06.015Z,0.53
2023-03-29T05:01:45.953Z,0.53
2023-03-29T05:02:18.501Z,0.50
2023-03-29T05:02:57.968Z,0.70
2023-03-29T05:03:34.587Z,0.70
2023-03-29T05:04:21.300Z,0.50
2023-03-29T05:05:09.482Z,0.50
2023-03-29T05:05:44.496Z,0.50
2023-03-29T05:06:17.189Z,0.70
2023-03-29T05:06:49.675Z,0.60
2023-03-29T05:07:24.805Z,0.50
2023-03-29T05:07:58.285Z,0.60
2023-03-29T05:08:39.781Z,0.50
2023-03-29T05:09:38.164Z,0.70
2023-03-29T05:10:11.206Z,0.50
2023-03-29T05:10:44.166Z,0.60
2023-03-29T05:11:20.558Z,0.53
2023-03-29T05:11:53.038Z,0.60
2023-03-29T05:12:26.860Z,0.50
2023-03-29T05:13:04.197Z,0.50
2023-03-29T05:13:38.184Z,0.47
2023-03-29T05:14:10.630Z,0.57
2023-03-29T05:14:45.882Z,0.60
2023-03-29T05:15:18.759Z,0.60
2023-03-29T05:15:53.874Z,0.60
2023-03-29T05:16:26.605Z,0.50
2023-03-29T05:17:01.500Z,0.50
2023-03-29T05:17:36.646Z,0.50
2023-03-29T05:18:14.582Z,0.50
2023-03-29T05:18:52.396Z,0.60
2023-03-29T05:19:28.247Z,0.60
2023-03-29T05:20:01.218Z,0.50
2023-03-29T05:20:34.215Z,0.47
2023-03-29T05:21:09.657Z,0.60
2023-03-29T05:21:45.409Z,0.50
2023-03-29T05:22:21.817Z,0.50
2023-03-29T05:22:56.969Z,0.50
2023-03-29T05:23:52.318Z,0.50
2023-03-29T05:24:45.920Z,0.60
2023-03-29T05:25:22.683Z,0.70
2023-03-29T05:25:55.260Z,0.50
2023-03-29T05:26:31.294Z,0.60
2023-03-29T05:27:04.110Z,0.50
2023-03-29T05:27:39.349Z,0.50
2023-03-29T05:28:17.413Z,0.50
2023-03-29T05:28:50.058Z,0.50
2023-03-29T05:29:23.658Z,0.70
2023-03-29T05:30:07.181Z,0.50
2023-03-29T05:31:16.971Z,0.50
2023-03-29T05:31:55.181Z,0.47
2023-03-29T05:32:29.526Z,0.60
2023-03-29T05:33:05.933Z,0.53
2023-03-29T05:33:39.652Z,0.50
2023-03-29T05:34:16.530Z,0.50
2023-03-29T05:34:55.562Z,0.50
2023-03-29T05:35:29.262Z,0.60
2023-03-29T05:36:04.818Z,0.60
2023-03-29T05:36:40.354Z,0.50
2023-03-29T05:37:13.609Z,0.60
2023-03-29T05:37:55.468Z,0.50
2023-03-29T05:38:30.735Z,0.50
2023-03-29T05:39:03.349Z,0.40
2023-03-29T05:39:37.891Z,0.47
2023-03-29T05:40:13.919Z,0.50
2023-03-29T05:41:12.231Z,0.50
2023-03-29T05:42:05.014Z,0.50
2023-03-29T05:42:41.992Z,0.50
2023-03-29T05:43:15.736Z,0.47
2023-03-29T05:43:50.819Z,0.50
2023-03-29T05:44:23.866Z,0.50
2023-03-29T05:45:01.571Z,0.60
2023-03-29T05:45:37.274Z,0.40
2023-03-29T05:46:10.207Z,0.50
2023-03-29T05:46:47.254Z,0.67
2023-03-29T05:47:24.956Z,0.60
2023-03-29T05:47:57.800Z,0.50
2023-03-29T05:48:32.956Z,0.60
2023-03-29T05:49:06.664Z,0.50
2023-03-29T05:49:59.470Z,0.50
2023-03-29T05:50:32.168Z,0.50
2023-03-29T05:51:08.943Z,0.60
2023-03-29T05:51:42.985Z,0.50
2023-03-29T05:52:15.944Z,0.50
2023-03-29T05:52:51.010Z,0.50
2023-03-29T05:53:25.571Z,0.50
2023-03-29T05:54:00.525Z,0.50
2023-03-29T05:54:33.214Z,0.50
2023-03-29T05:55:07.634Z,0.57
2023-03-29T05:55:42.705Z,0.50
2023-03-29T05:56:17.595Z,0.50
2023-03-29T05:56:50.072Z,0.60
2023-03-29T05:57:25.764Z,0.73
2023-03-29T05:57:58.274Z,0.60
2023-03-29T05:58:38.457Z,0.60
2023-03-29T05:59:10.816Z,0.50
2023-03-29T05:59:43.614Z,0.50
2023-03-29T06:00:24.535Z,0.60
2023-03-29T06:01:05.711Z,0.60
2023-03-29T06:02:10.795Z,0.60
2023-03-29T06:02:48.948Z,0.60
2023-03-29T06:03:25.616Z,0.50
2023-03-29T06:04:03.956Z,0.93
2023-03-29T06:04:59.314Z,0.53
2023-03-29T06:06:02.596Z,0.60
2023-03-29T06:06:36.511Z,0.60
2023-03-29T06:07:12.777Z,0.67
2023-03-29T06:07:50.558Z,0.60
2023-03-29T06:08:42.834Z,0.60
2023-03-29T06:09:44.961Z,0.50
2023-03-29T06:10:20.551Z,0.60
2023-03-29T06:11:04.624Z,0.50
2023-03-29T06:11:59.127Z,0.50
2023-03-29T06:12:44.555Z,0.50
2023-03-29T06:13:20.561Z,0.50
2023-03-29T06:13:53.130Z,0.60
2023-03-29T06:14:29.218Z,0.50
2023-03-29T06:15:13.562Z,0.50
2023-03-29T06:15:53.600Z,0.50
2023-03-29T06:16:26.464Z,0.57
2023-03-29T06:17:02.926Z,0.50
2023-03-29T06:17:35.635Z,0.60
2023-03-29T06:18:11.080Z,0.50
2023-03-29T06:18:45.129Z,0.50
2023-03-29T06:19:20.905Z,0.60
2023-03-29T06:19:53.714Z,0.53
2023-03-29T06:20:34.914Z,0.53
2023-03-29T06:21:14.831Z,0.50
2023-03-29T06:21:47.554Z,0.50
2023-03-29T06:22:28.103Z,0.60
2023-03-29T06:23:00.534Z,0.50
2023-03-29T06:23:36.595Z,0.50
2023-03-29T06:24:10.126Z,0.50
2023-03-29T06:24:51.671Z,0.50
2023-03-29T06:25:34.467Z,0.50
2023-03-29T06:26:10.784Z,0.60
2023-03-29T06:26:44.511Z,0.50
2023-03-29T06:27:16.974Z,0.70
2023-03-29T06:27:52.482Z,0.50
2023-03-29T06:28:26.135Z,0.50
2023-03-29T06:29:01.193Z,0.50
2023-03-29T06:29:33.827Z,0.50
2023-03-29T06:30:08.281Z,0.60
2023-03-29T06:30:46.327Z,0.60
2023-03-29T06:31:19.983Z,0.60
2023-03-29T06:31:57.893Z,0.70
2023-03-29T06:32:59.833Z,0.50
2023-03-29T06:33:53.455Z,0.53
2023-03-29T06:34:57.170Z,0.50
2023-03-29T06:35:44.681Z,0.50
2023-03-29T06:36:20.595Z,0.60
2023-03-29T06:36:56.587Z,0.50
2023-03-29T06:37:29.405Z,0.40
2023-03-29T06:38:15.349Z,0.50
2023-03-29T06:39:08.343Z,0.70
2023-03-29T06:40:14.051Z,0.67
2023-03-29T06:40:50.315Z,0.70
2023-03-29T06:41:26.988Z,0.60
2023-03-29T06:42:28.832Z,0.90
2023-03-29T06:43:22.284Z,0.93
2023-03-29T06:44:11.282Z,0.90
2023-03-29T06:44:59.364Z,1.00
2023-03-29T06:45:33.753Z,0.73
2023-03-29T06:46:12.457Z,0.70
2023-03-29T06:46:58.958Z,0.60
2023-03-29T06:47:34.163Z,0.53
2023-03-29T06:48:08.199Z,0.50
2023-03-29T06:48:43.918Z,0.60
2023-03-29T06:49:16.353Z,0.60
2023-03-29T06:50:11.906Z,0.60
2023-03-29T06:51:00.769Z,0.60
2023-03-29T06:51:38.213Z,0.60
2023-03-29T06:52:11.202Z,0.80
2023-03-29T06:52:46.324Z,0.60
2023-03-29T06:53:19.225Z,0.67
2023-03-29T06:54:04.372Z,0.70
2023-03-29T06:54:37.607Z,0.50
2023-03-29T06:55:12.074Z,0.77
2023-03-29T06:55:47.545Z,0.43
2023-03-29T06:56:51.752Z,0.50
2023-03-29T06:57:27.693Z,0.60
2023-03-29T06:58:04.431Z,0.50
2023-03-29T06:58:37.366Z,0.63
2023-03-29T06:59:21.678Z,0.50
2023-03-29T07:00:17.351Z,0.53
2023-03-29T07:01:11.747Z,0.60
2023-03-29T07:02:02.960Z,0.53
2023-03-29T07:02:53.758Z,0.60
2023-03-29T07:03:26.324Z,0.60
2023-03-29T07:04:08.271Z,0.60
2023-03-29T07:04:56.522Z,0.53
2023-03-29T07:05:46.099Z,0.50
2023-03-29T07:06:23.791Z,0.53
2023-03-29T07:07:05.947Z,0.60
2023-03-29T07:07:55.553Z,0.50
2023-03-29T07:08:52.657Z,0.60
2023-03-29T07:09:57.438Z,0.87
2023-03-29T07:10:52.895Z,1.00
2023-03-29T07:11:44.803Z,0.90
2023-03-29T07:12:31.226Z,0.60
2023-03-29T07:13:06.771Z,0.60
2023-03-29T07:13:42.782Z,0.60
2023-03-29T07:14:17.927Z,0.60
2023-03-29T07:14:53.765Z,0.60
2023-03-29T07:15:28.197Z,0.60
2023-03-29T07:16:24.003Z,0.50
2023-03-29T07:16:57.177Z,0.60
2023-03-29T07:17:40.650Z,0.40
2023-03-29T07:18:18.434Z,0.40
2023-03-29T07:18:51.441Z,0.50
2023-03-29T07:19:49.504Z,0.57
2023-03-29T07:20:47.808Z,0.60
2023-03-29T07:21:20.657Z,0.50
2023-03-29T07:21:58.861Z,0.53
2023-03-29T07:22:42.469Z,0.50
2023-03-29T07:23:18.279Z,0.50
2023-03-29T07:23:52.538Z,0.50
2023-03-29T07:24:27.599Z,0.40
2023-03-29T07:25:00.756Z,0.40
2023-03-29T07:25:36.378Z,0.57
2023-03-29T07:26:09.303Z,0.60
2023-03-29T07:26:56.217Z,0.50
2023-03-29T07:27:33.620Z,0.50
2023-03-29T07:28:09.332Z,0.60
2023-03-29T07:28:43.340Z,0.50
2023-03-29T07:29:18.670Z,0.50
2023-03-29T07:29:51.648Z,0.50
2023-03-29T07:30:32.034Z,0.53
2023-03-29T07:31:25.289Z,0.73
2023-03-29T07:32:08.226Z,0.60
2023-03-29T07:32:46.897Z,0.50
2023-03-29T07:33:33.509Z,0.50
2023-03-29T07:34:11.084Z,0.50
2023-03-29T07:34:43.990Z,0.53
2023-03-29T07:35:33.758Z,0.70
2023-03-29T07:36:07.931Z,0.47
2023-03-29T07:36:43.968Z,0.60
2023-03-29T07:37:18.979Z,0.50
2023-03-29T07:37:55.098Z,0.60
2023-03-29T07:38:27.652Z,0.70
2023-03-29T07:39:09.863Z,0.60
2023-03-29T07:39:44.930Z,0.50
2023-03-29T07:40:46.093Z,0.50
2023-03-29T07:41:50.951Z,0.50
2023-03-29T07:42:26.354Z,0.67
2023-03-29T07:42:59.195Z,0.60
2023-03-29T07:43:38.381Z,0.60
2023-03-29T07:44:10.893Z,0.40
2023-03-29T07:44:44.215Z,0.50
2023-03-29T07:45:20.647Z,0.60
2023-03-29T07:46:14.413Z,0.60
2023-03-29T07:46:49.787Z,0.50
2023-03-29T07:47:23.394Z,0.50
2023-03-29T07:47:58.688Z,0.60
2023-03-29T07:48:37.283Z,0.67
2023-03-29T07:49:12.371Z,0.60
2023-03-29T07:49:47.426Z,0.53
2023-03-29T07:50:19.793Z,0.50
2023-03-29T07:50:54.780Z,0.50
2023-03-29T07:51:33.497Z,0.50
2023-03-29T07:52:14.295Z,0.60
2023-03-29T07:52:49.607Z,0.67
2023-03-29T07:53:24.703Z,0.57
2023-03-29T07:54:01.807Z,0.70
2023-03-29T07:55:01.046Z,0.57
2023-03-29T07:55:49.345Z,0.60
2023-03-29T07:57:02.481Z,0.60
2023-03-29T07:57:39.930Z,0.60
2023-03-29T07:58:15.025Z,0.50
2023-03-29T07:58:47.875Z,0.60
2023-03-29T07:59:24.223Z,0.60
2023-03-29T08:00:16.698Z,0.63
2023-03-29T08:01:03.188Z,0.70
2023-03-29T08:01:56.865Z,0.60
2023-03-29T08:02:40.676Z,0.70
2023-03-29T08:03:13.458Z,0.70
2023-03-29T08:03:49.673Z,0.50
2023-03-29T08:04:22.992Z,0.50
2023-03-29T08:05:26.067Z,0.70
2023-03-29T08:06:03.787Z,0.60
2023-03-29T08:06:38.876Z,0.50
2023-03-29T08:07:11.421Z,0.60
2023-03-29T08:08:18.318Z,0.60
2023-03-29T08:09:03.140Z,0.60
2023-03-29T08:09:38.462Z,0.60
2023-03-29T08:10:13.744Z,0.50
2023-03-29T08:11:11.811Z,0.73
2023-03-29T08:12:01.767Z,0.60
2023-03-29T08:12:43.183Z,0.70
2023-03-29T08:13:15.675Z,0.60
2023-03-29T08:13:59.847Z,0.50
2023-03-29T08:14:32.183Z,0.60
2023-03-29T08:15:20.411Z,0.50
2023-03-29T08:15:52.892Z,0.60
2023-03-29T08:16:35.574Z,0.60
2023-03-29T08:17:16.258Z,0.63
2023-03-29T08:17:57.136Z,0.70
2023-03-29T08:18:33.510Z,0.53
2023-03-29T08:19:10.394Z,0.60
2023-03-29T08:19:58.417Z,0.60
2023-03-29T08:20:33.575Z,0.70
2023-03-29T08:21:09.369Z,0.60
2023-03-29T08:21:42.019Z,0.50
2023-03-29T08:22:17.104Z,0.50
2023-03-29T08:23:08.267Z,0.60
2023-03-29T08:24:04.320Z,0.60
2023-03-29T08:24:51.538Z,0.57
2023-03-29T08:25:27.784Z,0.53
2023-03-29T08:26:00.657Z,0.50
2023-03-29T08:26:36.055Z,0.60
2023-03-29T08:27:08.577Z,0.60
2023-03-29T08:27:41.026Z,0.50
2023-03-29T08:28:18.686Z,0.50
2023-03-29T08:28:55.641Z,0.57